sensor_id;sensor_type;location;lat;lon;timestamp;temperature;humidity
16879;DHT22;8556;52.218;9.884;2022-07-06T00:00:53;16.20;99.90
16879;DHT22;8556;52.218;9.884;2022-07-06T00:03:20;16.20;99.90
16879;DHT22;8556;52.218;9.884;2022-07-06T00:05:48;16.10;99.90
16879;DHT22;8556;52.218;9.884;2022-07-06T00:08:15;15.90;99.90
16879;DHT22;8556;52.218;9.884;2022-07-06T00:10:42;16.00;99.90
16879;DHT22;8556;52.218;9.884;2022-07-06T00:13:10;15.80;99.90
16879;DHT22;8556;52.218;9.884;2022-07-06T00:15:37;15.80;99.90
16879;DHT22;8556;52.218;9.884;2022-07-06T00:18:04;15.80;99.90
16879;DHT22;8556;52.218;9.884;2022-07-06T00:20:31;15.80;99.90
16879;DHT22;8556;52.218;9.884;2022-07-06T00:22:59;16.00;99.90
16879;DHT22;8556;52.218;9.884;2022-07-06T00:25:26;15.90;99.90
16879;DHT22;8556;52.218;9.884;2022-07-06T00:27:53;15.90;99.90
16879;DHT22;8556;52.218;9.884;2022-07-06T00:30:20;15.90;99.90
16879;DHT22;8556;52.218;9.884;2022-07-06T00:32:47;16.00;99.90
16879;DHT22;8556;52.218;9.884;2022-07-06T00:35:14;16.10;99.90
16879;DHT22;8556;52.218;9.884;2022-07-06T00:37:41;15.90;99.90
16879;DHT22;8556;52.218;9.884;2022-07-06T00:40:10;15.90;99.90
16879;DHT22;8556;52.218;9.884;2022-07-06T00:42:41;15.90;99.90
16879;DHT22;8556;52.218;9.884;2022-07-06T00:45:09;15.90;99.70
16879;DHT22;8556;52.218;9.884;2022-07-06T00:47:38;16.00;98.60
16879;DHT22;8556;52.218;9.884;2022-07-06T00:50:07;15.90;97.40
16879;DHT22;8556;52.218;9.884;2022-07-06T00:52:47;15.90;98.70
16879;DHT22;8556;52.218;9.884;2022-07-06T00:55:17;16.00;99.30
16879;DHT22;8556;52.218;9.884;2022-07-06T00:57:45;16.10;99.70
16879;DHT22;8556;52.218;9.884;2022-07-06T01:00:15;15.90;99.90
16879;DHT22;8556;52.218;9.884;2022-07-06T01:02:43;15.90;99.90
16879;DHT22;8556;52.218;9.884;2022-07-06T01:05:11;15.90;99.90
16879;DHT22;8556;52.218;9.884;2022-07-06T01:07:40;15.80;99.90
16879;DHT22;8556;52.218;9.884;2022-07-06T01:10:09;15.50;99.90
16879;DHT22;8556;52.218;9.884;2022-07-06T01:12:39;15.50;99.90
16879;DHT22;8556;52.218;9.884;2022-07-06T01:15:08;15.50;99.90
16879;DHT22;8556;52.218;9.884;2022-07-06T01:17:35;15.50;99.90
16879;DHT22;8556;52.218;9.884;2022-07-06T01:20:14;15.40;99.90
16879;DHT22;8556;52.218;9.884;2022-07-06T01:22:41;15.40;99.90
16879;DHT22;8556;52.218;9.884;2022-07-06T01:25:09;15.50;99.90
16879;DHT22;8556;52.218;9.884;2022-07-06T01:27:38;15.60;99.90
16879;DHT22;8556;52.218;9.884;2022-07-06T01:30:07;15.50;99.90
16879;DHT22;8556;52.218;9.884;2022-07-06T01:32:35;15.40;99.90
16879;DHT22;8556;52.218;9.884;2022-07-06T01:35:03;15.30;99.90
16879;DHT22;8556;52.218;9.884;2022-07-06T01:37:33;15.40;99.90
16879;DHT22;8556;52.218;9.884;2022-07-06T01:40:00;15.40;99.90
16879;DHT22;8556;52.218;9.884;2022-07-06T01:42:27;15.50;99.90
16879;DHT22;8556;52.218;9.884;2022-07-06T01:44:54;15.50;99.90
16879;DHT22;8556;52.218;9.884;2022-07-06T01:47:21;15.60;99.90
16879;DHT22;8556;52.218;9.884;2022-07-06T01:49:48;15.60;99.90
16879;DHT22;8556;52.218;9.884;2022-07-06T01:52:15;15.60;99.90
16879;DHT22;8556;52.218;9.884;2022-07-06T01:54:44;15.60;99.90
16879;DHT22;8556;52.218;9.884;2022-07-06T01:57:11;15.50;99.90
16879;DHT22;8556;52.218;9.884;2022-07-06T01:59:38;15.50;99.90
16879;DHT22;8556;52.218;9.884;2022-07-06T02:02:05;15.50;99.90
16879;DHT22;8556;52.218;9.884;2022-07-06T02:04:32;15.50;99.90
16879;DHT22;8556;52.218;9.884;2022-07-06T02:06:59;15.50;99.90
16879;DHT22;8556;52.218;9.884;2022-07-06T02:09:26;15.40;99.90
16879;DHT22;8556;52.218;9.884;2022-07-06T02:11:55;15.40;99.90
16879;DHT22;8556;52.218;9.884;2022-07-06T02:14:22;15.40;99.90
16879;DHT22;8556;52.218;9.884;2022-07-06T02:16:49;15.40;99.90
16879;DHT22;8556;52.218;9.884;2022-07-06T02:19:16;15.40;99.90
16879;DHT22;8556;52.218;9.884;2022-07-06T02:21:43;15.40;99.90
16879;DHT22;8556;52.218;9.884;2022-07-06T02:24:10;15.30;99.90
16879;DHT22;8556;52.218;9.884;2022-07-06T02:26:37;15.30;99.90
16879;DHT22;8556;52.218;9.884;2022-07-06T02:29:05;15.30;99.90
16879;DHT22;8556;52.218;9.884;2022-07-06T02:31:32;15.30;99.90
16879;DHT22;8556;52.218;9.884;2022-07-06T02:33:59;15.20;99.90
16879;DHT22;8556;52.218;9.884;2022-07-06T02:36:26;15.20;99.90
16879;DHT22;8556;52.218;9.884;2022-07-06T02:38:53;15.30;99.90
16879;DHT22;8556;52.218;9.884;2022-07-06T02:41:20;15.20;99.90
16879;DHT22;8556;52.218;9.884;2022-07-06T02:43:47;15.30;99.90
16879;DHT22;8556;52.218;9.884;2022-07-06T02:46:15;15.30;99.90
16879;DHT22;8556;52.218;9.884;2022-07-06T02:48:42;15.30;99.90
16879;DHT22;8556;52.218;9.884;2022-07-06T02:51:09;15.20;99.90
16879;DHT22;8556;52.218;9.884;2022-07-06T02:53:36;15.20;99.90
16879;DHT22;8556;52.218;9.884;2022-07-06T02:56:03;15.20;99.90
16879;DHT22;8556;52.218;9.884;2022-07-06T02:58:30;15.10;99.90
16879;DHT22;8556;52.218;9.884;2022-07-06T03:00:57;15.10;99.90
16879;DHT22;8556;52.218;9.884;2022-07-06T03:03:25;15.20;99.90
16879;DHT22;8556;52.218;9.884;2022-07-06T03:05:53;15.20;99.90
16879;DHT22;8556;52.218;9.884;2022-07-06T03:08:20;15.10;99.90
16879;DHT22;8556;52.218;9.884;2022-07-06T03:10:47;15.10;99.90
16879;DHT22;8556;52.218;9.884;2022-07-06T03:13:13;15.00;99.90
16879;DHT22;8556;52.218;9.884;2022-07-06T03:15:40;15.10;99.90
16879;DHT22;8556;52.218;9.884;2022-07-06T03:18:07;15.00;99.90
16879;DHT22;8556;52.218;9.884;2022-07-06T03:20:36;15.00;99.90
16879;DHT22;8556;52.218;9.884;2022-07-06T03:23:03;15.00;99.90
16879;DHT22;8556;52.218;9.884;2022-07-06T03:25:30;15.00;99.90
16879;DHT22;8556;52.218;9.884;2022-07-06T03:27:58;15.00;99.90
16879;DHT22;8556;52.218;9.884;2022-07-06T03:30:25;15.00;99.90
16879;DHT22;8556;52.218;9.884;2022-07-06T03:32:52;15.00;99.90
16879;DHT22;8556;52.218;9.884;2022-07-06T03:35:19;15.00;99.90
16879;DHT22;8556;52.218;9.884;2022-07-06T03:37:47;15.00;99.90
16879;DHT22;8556;52.218;9.884;2022-07-06T03:40:15;15.00;99.90
16879;DHT22;8556;52.218;9.884;2022-07-06T03:42:41;15.00;99.90
16879;DHT22;8556;52.218;9.884;2022-07-06T03:45:09;14.90;99.90
16879;DHT22;8556;52.218;9.884;2022-07-06T03:47:36;14.90;99.90
16879;DHT22;8556;52.218;9.884;2022-07-06T03:50:04;15.00;99.90
16879;DHT22;8556;52.218;9.884;2022-07-06T03:52:31;15.00;99.90
16879;DHT22;8556;52.218;9.884;2022-07-06T03:55:00;15.20;99.90
16879;DHT22;8556;52.218;9.884;2022-07-06T03:57:27;15.10;99.90
16879;DHT22;8556;52.218;9.884;2022-07-06T03:59:54;15.00;99.90
16879;DHT22;8556;52.218;9.884;2022-07-06T04:02:21;14.90;99.90
16879;DHT22;8556;52.218;9.884;2022-07-06T04:04:48;15.00;99.90
16879;DHT22;8556;52.218;9.884;2022-07-06T04:07:15;15.20;99.90
16879;DHT22;8556;52.218;9.884;2022-07-06T04:09:42;15.20;99.90
16879;DHT22;8556;52.218;9.884;2022-07-06T04:12:10;15.20;99.90
16879;DHT22;8556;52.218;9.884;2022-07-06T04:14:37;15.00;99.90
16879;DHT22;8556;52.218;9.884;2022-07-06T04:17:04;15.00;99.90
16879;DHT22;8556;52.218;9.884;2022-07-06T04:19:45;15.10;99.90
16879;DHT22;8556;52.218;9.884;2022-07-06T04:22:12;15.20;99.90
16879;DHT22;8556;52.218;9.884;2022-07-06T04:24:39;15.20;99.90
16879;DHT22;8556;52.218;9.884;2022-07-06T04:27:06;15.10;99.90
16879;DHT22;8556;52.218;9.884;2022-07-06T04:29:34;15.20;99.90
16879;DHT22;8556;52.218;9.884;2022-07-06T04:32:02;15.30;99.90
16879;DHT22;8556;52.218;9.884;2022-07-06T04:34:29;15.40;99.90
16879;DHT22;8556;52.218;9.884;2022-07-06T04:36:56;15.40;99.90
16879;DHT22;8556;52.218;9.884;2022-07-06T04:39:23;15.30;99.90
16879;DHT22;8556;52.218;9.884;2022-07-06T04:41:50;15.30;99.90
16879;DHT22;8556;52.218;9.884;2022-07-06T04:44:17;15.50;99.90
16879;DHT22;8556;52.218;9.884;2022-07-06T04:46:45;15.50;99.90
16879;DHT22;8556;52.218;9.884;2022-07-06T04:49:12;15.70;99.90
16879;DHT22;8556;52.218;9.884;2022-07-06T04:51:39;15.70;99.90
16879;DHT22;8556;52.218;9.884;2022-07-06T04:54:06;15.50;99.90
16879;DHT22;8556;52.218;9.884;2022-07-06T04:56:33;15.60;99.90
16879;DHT22;8556;52.218;9.884;2022-07-06T04:59:00;15.70;99.90
16879;DHT22;8556;52.218;9.884;2022-07-06T05:01:27;15.80;99.90
16879;DHT22;8556;52.218;9.884;2022-07-06T05:03:55;15.70;99.90
16879;DHT22;8556;52.218;9.884;2022-07-06T05:06:22;15.60;99.90
16879;DHT22;8556;52.218;9.884;2022-07-06T05:08:49;15.80;99.90
16879;DHT22;8556;52.218;9.884;2022-07-06T05:11:16;15.70;99.90
16879;DHT22;8556;52.218;9.884;2022-07-06T05:13:44;15.80;99.90
16879;DHT22;8556;52.218;9.884;2022-07-06T05:16:11;16.20;99.90
16879;DHT22;8556;52.218;9.884;2022-07-06T05:18:38;15.80;99.90
16879;DHT22;8556;52.218;9.884;2022-07-06T05:21:06;15.80;99.90
16879;DHT22;8556;52.218;9.884;2022-07-06T05:23:33;15.90;99.90
16879;DHT22;8556;52.218;9.884;2022-07-06T05:26:00;16.10;99.90
16879;DHT22;8556;52.218;9.884;2022-07-06T05:28:27;16.00;99.90
16879;DHT22;8556;52.218;9.884;2022-07-06T05:30:54;15.90;99.90
16879;DHT22;8556;52.218;9.884;2022-07-06T05:33:21;16.00;99.90
16879;DHT22;8556;52.218;9.884;2022-07-06T05:35:48;16.10;99.90
16879;DHT22;8556;52.218;9.884;2022-07-06T05:38:17;16.20;99.90
16879;DHT22;8556;52.218;9.884;2022-07-06T05:40:44;16.20;99.90
16879;DHT22;8556;52.218;9.884;2022-07-06T05:43:11;16.20;99.90
16879;DHT22;8556;52.218;9.884;2022-07-06T05:45:38;16.10;99.90
16879;DHT22;8556;52.218;9.884;2022-07-06T05:48:05;16.40;99.90
16879;DHT22;8556;52.218;9.884;2022-07-06T05:50:50;16.30;99.90
16879;DHT22;8556;52.218;9.884;2022-07-06T05:53:18;16.40;99.90
16879;DHT22;8556;52.218;9.884;2022-07-06T05:55:45;17.00;99.90
16879;DHT22;8556;52.218;9.884;2022-07-06T05:58:12;16.90;99.90
16879;DHT22;8556;52.218;9.884;2022-07-06T06:00:39;16.90;99.90
16879;DHT22;8556;52.218;9.884;2022-07-06T06:03:06;16.90;99.90
16879;DHT22;8556;52.218;9.884;2022-07-06T06:05:33;17.00;99.90
16879;DHT22;8556;52.218;9.884;2022-07-06T06:08:00;16.70;99.90
16879;DHT22;8556;52.218;9.884;2022-07-06T06:10:30;16.60;99.90
16879;DHT22;8556;52.218;9.884;2022-07-06T06:12:57;16.70;99.90
16879;DHT22;8556;52.218;9.884;2022-07-06T06:15:25;17.00;99.90
16879;DHT22;8556;52.218;9.884;2022-07-06T06:17:52;16.90;99.90
16879;DHT22;8556;52.218;9.884;2022-07-06T06:20:19;17.10;99.90
16879;DHT22;8556;52.218;9.884;2022-07-06T06:22:47;16.80;99.90
16879;DHT22;8556;52.218;9.884;2022-07-06T06:25:15;16.90;99.90
16879;DHT22;8556;52.218;9.884;2022-07-06T06:27:43;17.00;99.90
16879;DHT22;8556;52.218;9.884;2022-07-06T06:30:11;16.50;99.90
16879;DHT22;8556;52.218;9.884;2022-07-06T06:32:39;16.90;99.90
16879;DHT22;8556;52.218;9.884;2022-07-06T06:35:07;17.00;99.90
16879;DHT22;8556;52.218;9.884;2022-07-06T06:37:34;17.00;99.30
16879;DHT22;8556;52.218;9.884;2022-07-06T06:40:02;17.00;98.70
16879;DHT22;8556;52.218;9.884;2022-07-06T06:42:29;16.80;97.30
16879;DHT22;8556;52.218;9.884;2022-07-06T06:44:57;16.90;99.90
16879;DHT22;8556;52.218;9.884;2022-07-06T06:47:24;17.10;96.80
16879;DHT22;8556;52.218;9.884;2022-07-06T06:49:51;17.00;93.60
16879;DHT22;8556;52.218;9.884;2022-07-06T06:52:18;17.10;94.40
16879;DHT22;8556;52.218;9.884;2022-07-06T06:54:45;17.40;92.70
16879;DHT22;8556;52.218;9.884;2022-07-06T06:57:12;17.20;91.70
16879;DHT22;8556;52.218;9.884;2022-07-06T06:59:39;17.40;90.60
16879;DHT22;8556;52.218;9.884;2022-07-06T07:02:07;17.40;87.20
16879;DHT22;8556;52.218;9.884;2022-07-06T07:04:34;17.50;83.90
16879;DHT22;8556;52.218;9.884;2022-07-06T07:07:01;17.60;85.40
16879;DHT22;8556;52.218;9.884;2022-07-06T07:09:28;17.50;86.00
16879;DHT22;8556;52.218;9.884;2022-07-06T07:11:55;17.20;80.80
16879;DHT22;8556;52.218;9.884;2022-07-06T07:14:24;17.20;82.00
16879;DHT22;8556;52.218;9.884;2022-07-06T07:16:53;17.20;75.50
16879;DHT22;8556;52.218;9.884;2022-07-06T07:19:21;17.30;76.60
16879;DHT22;8556;52.218;9.884;2022-07-06T07:21:48;17.50;75.50
16879;DHT22;8556;52.218;9.884;2022-07-06T07:24:15;17.50;73.10
16879;DHT22;8556;52.218;9.884;2022-07-06T07:26:42;17.60;68.60
16879;DHT22;8556;52.218;9.884;2022-07-06T07:29:09;17.10;64.90
16879;DHT22;8556;52.218;9.884;2022-07-06T07:31:36;17.00;66.60
16879;DHT22;8556;52.218;9.884;2022-07-06T07:34:03;17.20;68.30
16879;DHT22;8556;52.218;9.884;2022-07-06T07:36:31;17.50;69.70
16879;DHT22;8556;52.218;9.884;2022-07-06T07:38:58;17.80;68.60
16879;DHT22;8556;52.218;9.884;2022-07-06T07:41:25;17.60;65.20
16879;DHT22;8556;52.218;9.884;2022-07-06T07:43:52;17.60;65.90
16879;DHT22;8556;52.218;9.884;2022-07-06T07:46:19;17.70;64.30
16879;DHT22;8556;52.218;9.884;2022-07-06T07:48:46;17.60;66.10
16879;DHT22;8556;52.218;9.884;2022-07-06T07:51:13;17.70;67.60
16879;DHT22;8556;52.218;9.884;2022-07-06T07:53:41;17.80;63.20
16879;DHT22;8556;52.218;9.884;2022-07-06T07:56:09;17.70;61.00
16879;DHT22;8556;52.218;9.884;2022-07-06T07:58:36;17.90;62.60
16879;DHT22;8556;52.218;9.884;2022-07-06T08:01:03;17.80;57.80
16879;DHT22;8556;52.218;9.884;2022-07-06T08:03:31;17.70;56.60
16879;DHT22;8556;52.218;9.884;2022-07-06T08:05:58;17.60;58.10
16879;DHT22;8556;52.218;9.884;2022-07-06T08:08:25;17.80;57.90
16879;DHT22;8556;52.218;9.884;2022-07-06T08:10:53;18.00;57.30
16879;DHT22;8556;52.218;9.884;2022-07-06T08:13:20;18.00;55.90
16879;DHT22;8556;52.218;9.884;2022-07-06T08:15:47;18.10;52.80
16879;DHT22;8556;52.218;9.884;2022-07-06T08:18:14;18.10;50.20
16879;DHT22;8556;52.218;9.884;2022-07-06T08:20:41;18.10;51.00
16879;DHT22;8556;52.218;9.884;2022-07-06T08:23:08;18.30;54.00
16879;DHT22;8556;52.218;9.884;2022-07-06T08:25:35;18.10;52.10
16879;DHT22;8556;52.218;9.884;2022-07-06T08:28:03;18.20;51.40
16879;DHT22;8556;52.218;9.884;2022-07-06T08:30:30;18.10;53.40
16879;DHT22;8556;52.218;9.884;2022-07-06T08:33:00;18.20;51.30
16879;DHT22;8556;52.218;9.884;2022-07-06T08:35:27;18.40;51.30
16879;DHT22;8556;52.218;9.884;2022-07-06T08:37:54;18.20;52.70
16879;DHT22;8556;52.218;9.884;2022-07-06T08:40:21;18.40;51.60
16879;DHT22;8556;52.218;9.884;2022-07-06T08:42:51;18.40;50.70
16879;DHT22;8556;52.218;9.884;2022-07-06T08:45:21;18.50;49.50
16879;DHT22;8556;52.218;9.884;2022-07-06T08:47:49;18.90;43.90
16879;DHT22;8556;52.218;9.884;2022-07-06T08:50:16;18.80;39.40
16879;DHT22;8556;52.218;9.884;2022-07-06T08:52:43;18.70;41.50
16879;DHT22;8556;52.218;9.884;2022-07-06T08:55:11;18.70;38.30
16879;DHT22;8556;52.218;9.884;2022-07-06T08:57:38;18.60;36.60
16879;DHT22;8556;52.218;9.884;2022-07-06T09:00:07;18.50;37.80
16879;DHT22;8556;52.218;9.884;2022-07-06T09:02:36;18.70;38.10
16879;DHT22;8556;52.218;9.884;2022-07-06T09:05:04;18.70;37.70
16879;DHT22;8556;52.218;9.884;2022-07-06T09:07:31;18.90;40.00
16879;DHT22;8556;52.218;9.884;2022-07-06T09:09:59;18.80;39.90
16879;DHT22;8556;52.218;9.884;2022-07-06T09:12:27;18.60;42.60
16879;DHT22;8556;52.218;9.884;2022-07-06T09:14:55;18.60;38.50
16879;DHT22;8556;52.218;9.884;2022-07-06T09:17:26;18.50;37.10
16879;DHT22;8556;52.218;9.884;2022-07-06T09:19:56;18.90;37.50
16879;DHT22;8556;52.218;9.884;2022-07-06T09:22:28;19.30;38.40
16879;DHT22;8556;52.218;9.884;2022-07-06T09:25:02;19.30;32.50
16879;DHT22;8556;52.218;9.884;2022-07-06T09:27:30;19.00;32.30
16879;DHT22;8556;52.218;9.884;2022-07-06T09:29:59;19.40;33.70
16879;DHT22;8556;52.218;9.884;2022-07-06T09:32:27;19.40;33.70
16879;DHT22;8556;52.218;9.884;2022-07-06T09:34:55;19.60;34.60
16879;DHT22;8556;52.218;9.884;2022-07-06T09:37:22;19.80;32.00
16879;DHT22;8556;52.218;9.884;2022-07-06T09:39:50;19.70;30.10
16879;DHT22;8556;52.218;9.884;2022-07-06T09:42:24;19.90;29.70
16879;DHT22;8556;52.218;9.884;2022-07-06T09:44:52;20.00;31.20
16879;DHT22;8556;52.218;9.884;2022-07-06T09:47:20;19.90;30.70
16879;DHT22;8556;52.218;9.884;2022-07-06T09:49:47;19.70;31.60
16879;DHT22;8556;52.218;9.884;2022-07-06T09:52:16;19.80;28.00
16879;DHT22;8556;52.218;9.884;2022-07-06T09:54:43;19.90;27.20
16879;DHT22;8556;52.218;9.884;2022-07-06T09:57:15;20.00;26.90
16879;DHT22;8556;52.218;9.884;2022-07-06T09:59:42;20.10;24.20
16879;DHT22;8556;52.218;9.884;2022-07-06T10:02:16;20.20;22.10
16879;DHT22;8556;52.218;9.884;2022-07-06T10:04:44;19.90;23.90
16879;DHT22;8556;52.218;9.884;2022-07-06T10:07:12;19.60;25.50
16879;DHT22;8556;52.218;9.884;2022-07-06T10:09:41;19.60;26.30
16879;DHT22;8556;52.218;9.884;2022-07-06T10:12:12;19.50;29.20
16879;DHT22;8556;52.218;9.884;2022-07-06T10:14:41;19.20;29.30
16879;DHT22;8556;52.218;9.884;2022-07-06T10:17:09;19.20;27.30
16879;DHT22;8556;52.218;9.884;2022-07-06T10:19:36;19.30;26.20
16879;DHT22;8556;52.218;9.884;2022-07-06T10:22:04;19.10;26.50
16879;DHT22;8556;52.218;9.884;2022-07-06T10:24:32;19.20;24.60
16879;DHT22;8556;52.218;9.884;2022-07-06T10:27:01;19.00;24.30
16879;DHT22;8556;52.218;9.884;2022-07-06T10:29:30;19.00;23.80
16879;DHT22;8556;52.218;9.884;2022-07-06T10:31:57;19.00;24.00
16879;DHT22;8556;52.218;9.884;2022-07-06T10:34:26;18.80;24.50
16879;DHT22;8556;52.218;9.884;2022-07-06T10:36:53;19.00;25.60
16879;DHT22;8556;52.218;9.884;2022-07-06T10:39:35;19.10;25.80
16879;DHT22;8556;52.218;9.884;2022-07-06T10:42:45;19.40;26.20
16879;DHT22;8556;52.218;9.884;2022-07-06T10:48:16;19.80;24.90
16879;DHT22;8556;52.218;9.884;2022-07-06T10:50:47;19.80;23.60
16879;DHT22;8556;52.218;9.884;2022-07-06T10:53:16;20.10;24.50
16879;DHT22;8556;52.218;9.884;2022-07-06T10:55:44;19.90;22.60
16879;DHT22;8556;52.218;9.884;2022-07-06T10:58:15;20.30;21.70
16879;DHT22;8556;52.218;9.884;2022-07-06T11:01:01;20.10;20.40
16879;DHT22;8556;52.218;9.884;2022-07-06T11:03:38;20.00;22.10
16879;DHT22;8556;52.218;9.884;2022-07-06T11:06:10;20.10;21.90
16879;DHT22;8556;52.218;9.884;2022-07-06T11:08:56;20.00;22.50
16879;DHT22;8556;52.218;9.884;2022-07-06T11:11:25;19.80;23.50
16879;DHT22;8556;52.218;9.884;2022-07-06T11:13:56;19.50;24.20
16879;DHT22;8556;52.218;9.884;2022-07-06T11:16:25;19.60;24.90
16879;DHT22;8556;52.218;9.884;2022-07-06T11:19:01;19.20;22.90
16879;DHT22;8556;52.218;9.884;2022-07-06T11:21:39;19.10;23.70
16879;DHT22;8556;52.218;9.884;2022-07-06T11:24:09;19.30;22.50
16879;DHT22;8556;52.218;9.884;2022-07-06T11:26:37;19.20;23.80
16879;DHT22;8556;52.218;9.884;2022-07-06T11:29:07;19.60;23.30
16879;DHT22;8556;52.218;9.884;2022-07-06T11:31:35;19.50;22.70
16879;DHT22;8556;52.218;9.884;2022-07-06T11:34:04;19.60;21.90
16879;DHT22;8556;52.218;9.884;2022-07-06T11:36:31;19.60;21.40
16879;DHT22;8556;52.218;9.884;2022-07-06T11:38:59;20.00;22.20
16879;DHT22;8556;52.218;9.884;2022-07-06T11:41:26;20.30;22.40
16879;DHT22;8556;52.218;9.884;2022-07-06T11:43:53;21.10;21.90
16879;DHT22;8556;52.218;9.884;2022-07-06T11:46:27;20.90;16.30
16879;DHT22;8556;52.218;9.884;2022-07-06T11:48:56;21.30;15.70
16879;DHT22;8556;52.218;9.884;2022-07-06T11:51:24;21.60;16.90
16879;DHT22;8556;52.218;9.884;2022-07-06T11:53:52;21.50;18.30
16879;DHT22;8556;52.218;9.884;2022-07-06T11:56:20;21.70;18.60
16879;DHT22;8556;52.218;9.884;2022-07-06T11:58:52;21.40;17.30
16879;DHT22;8556;52.218;9.884;2022-07-06T12:01:20;21.50;16.70
16879;DHT22;8556;52.218;9.884;2022-07-06T12:03:49;21.40;15.50
16879;DHT22;8556;52.218;9.884;2022-07-06T12:06:18;21.40;15.00
16879;DHT22;8556;52.218;9.884;2022-07-06T12:08:47;21.00;12.90
16879;DHT22;8556;52.218;9.884;2022-07-06T12:11:22;21.20;11.80
16879;DHT22;8556;52.218;9.884;2022-07-06T12:13:50;20.70;10.00
16879;DHT22;8556;52.218;9.884;2022-07-06T12:16:18;20.80;10.50
16879;DHT22;8556;52.218;9.884;2022-07-06T12:18:48;20.70;10.80
16879;DHT22;8556;52.218;9.884;2022-07-06T12:21:18;20.70;11.80
16879;DHT22;8556;52.218;9.884;2022-07-06T12:23:48;20.90;11.50
16879;DHT22;8556;52.218;9.884;2022-07-06T12:26:17;21.10;10.80
16879;DHT22;8556;52.218;9.884;2022-07-06T12:28:45;21.20;11.10
16879;DHT22;8556;52.218;9.884;2022-07-06T12:31:31;21.20;10.80
16879;DHT22;8556;52.218;9.884;2022-07-06T12:34:00;21.10;10.20
16879;DHT22;8556;52.218;9.884;2022-07-06T12:36:27;21.20;10.90
16879;DHT22;8556;52.218;9.884;2022-07-06T12:38:54;21.10;11.00
16879;DHT22;8556;52.218;9.884;2022-07-06T12:41:30;21.00;10.80
16879;DHT22;8556;52.218;9.884;2022-07-06T12:44:08;21.00;10.60
16879;DHT22;8556;52.218;9.884;2022-07-06T12:46:36;21.20;11.70
16879;DHT22;8556;52.218;9.884;2022-07-06T12:49:13;21.90;12.50
16879;DHT22;8556;52.218;9.884;2022-07-06T12:51:58;21.60;11.70
16879;DHT22;8556;52.218;9.884;2022-07-06T12:54:28;21.20;10.50
16879;DHT22;8556;52.218;9.884;2022-07-06T12:57:03;20.90;10.10
16879;DHT22;8556;52.218;9.884;2022-07-06T12:59:33;21.20;12.30
16879;DHT22;8556;52.218;9.884;2022-07-06T13:02:00;21.40;11.50
16879;DHT22;8556;52.218;9.884;2022-07-06T13:04:30;21.40;10.60
16879;DHT22;8556;52.218;9.884;2022-07-06T13:06:58;21.20;10.70
16879;DHT22;8556;52.218;9.884;2022-07-06T13:09:27;21.80;13.10
16879;DHT22;8556;52.218;9.884;2022-07-06T13:11:54;21.70;9.10
16879;DHT22;8556;52.218;9.884;2022-07-06T13:14:21;21.50;8.70
16879;DHT22;8556;52.218;9.884;2022-07-06T13:16:48;21.60;8.90
16879;DHT22;8556;52.218;9.884;2022-07-06T13:19:15;21.80;11.20
16879;DHT22;8556;52.218;9.884;2022-07-06T13:21:44;21.60;10.80
16879;DHT22;8556;52.218;9.884;2022-07-06T13:24:11;21.60;11.00
16879;DHT22;8556;52.218;9.884;2022-07-06T13:26:39;21.30;9.40
16879;DHT22;8556;52.218;9.884;2022-07-06T13:29:06;21.10;11.10
16879;DHT22;8556;52.218;9.884;2022-07-06T13:31:33;21.30;9.40
16879;DHT22;8556;52.218;9.884;2022-07-06T13:34:00;21.20;8.80
16879;DHT22;8556;52.218;9.884;2022-07-06T13:36:27;21.50;9.90
16879;DHT22;8556;52.218;9.884;2022-07-06T13:38:55;22.10;12.90
16879;DHT22;8556;52.218;9.884;2022-07-06T13:41:22;22.00;13.20
16879;DHT22;8556;52.218;9.884;2022-07-06T13:43:50;21.30;12.50
16879;DHT22;8556;52.218;9.884;2022-07-06T13:46:17;20.90;14.50
16879;DHT22;8556;52.218;9.884;2022-07-06T13:48:45;21.10;13.50
16879;DHT22;8556;52.218;9.884;2022-07-06T13:51:12;21.00;15.10
16879;DHT22;8556;52.218;9.884;2022-07-06T13:53:40;21.10;15.40
16879;DHT22;8556;52.218;9.884;2022-07-06T13:56:08;21.10;18.20
16879;DHT22;8556;52.218;9.884;2022-07-06T13:58:35;21.60;16.70
16879;DHT22;8556;52.218;9.884;2022-07-06T14:01:03;21.80;14.90
16879;DHT22;8556;52.218;9.884;2022-07-06T14:03:30;21.70;13.70
16879;DHT22;8556;52.218;9.884;2022-07-06T14:05:58;21.80;15.10
16879;DHT22;8556;52.218;9.884;2022-07-06T14:08:26;21.90;14.10
16879;DHT22;8556;52.218;9.884;2022-07-06T14:10:53;22.10;13.90
16879;DHT22;8556;52.218;9.884;2022-07-06T14:13:22;22.30;11.10
16879;DHT22;8556;52.218;9.884;2022-07-06T14:15:50;22.00;11.40
16879;DHT22;8556;52.218;9.884;2022-07-06T14:18:17;21.80;10.20
16879;DHT22;8556;52.218;9.884;2022-07-06T14:20:44;22.10;8.70
16879;DHT22;8556;52.218;9.884;2022-07-06T14:23:11;22.10;13.60
16879;DHT22;8556;52.218;9.884;2022-07-06T14:25:39;22.00;10.30
16879;DHT22;8556;52.218;9.884;2022-07-06T14:28:06;21.70;10.70
16879;DHT22;8556;52.218;9.884;2022-07-06T14:30:35;21.90;13.20
16879;DHT22;8556;52.218;9.884;2022-07-06T14:33:04;21.40;10.30
16879;DHT22;8556;52.218;9.884;2022-07-06T14:35:34;21.60;10.70
16879;DHT22;8556;52.218;9.884;2022-07-06T14:38:01;21.90;11.70
16879;DHT22;8556;52.218;9.884;2022-07-06T14:40:28;22.50;11.80
16879;DHT22;8556;52.218;9.884;2022-07-06T14:42:56;22.60;13.00
16879;DHT22;8556;52.218;9.884;2022-07-06T14:45:23;22.10;10.40
16879;DHT22;8556;52.218;9.884;2022-07-06T14:47:51;21.70;12.40
16879;DHT22;8556;52.218;9.884;2022-07-06T14:50:18;21.40;11.10
16879;DHT22;8556;52.218;9.884;2022-07-06T14:52:46;21.40;11.80
16879;DHT22;8556;52.218;9.884;2022-07-06T14:55:13;21.20;13.30
16879;DHT22;8556;52.218;9.884;2022-07-06T14:57:40;21.20;13.20
16879;DHT22;8556;52.218;9.884;2022-07-06T15:00:08;21.20;12.20
16879;DHT22;8556;52.218;9.884;2022-07-06T15:02:36;21.40;12.80
16879;DHT22;8556;52.218;9.884;2022-07-06T15:05:05;21.40;15.50
16879;DHT22;8556;52.218;9.884;2022-07-06T15:07:32;21.40;14.30
16879;DHT22;8556;52.218;9.884;2022-07-06T15:09:59;21.80;13.80
16879;DHT22;8556;52.218;9.884;2022-07-06T15:12:26;21.40;10.20
16879;DHT22;8556;52.218;9.884;2022-07-06T15:14:53;20.90;10.20
16879;DHT22;8556;52.218;9.884;2022-07-06T15:17:20;21.30;10.90
16879;DHT22;8556;52.218;9.884;2022-07-06T15:19:50;21.60;12.50
16879;DHT22;8556;52.218;9.884;2022-07-06T15:22:19;21.70;13.70
16879;DHT22;8556;52.218;9.884;2022-07-06T15:24:47;21.90;11.90
16879;DHT22;8556;52.218;9.884;2022-07-06T15:27:14;22.00;13.90
16879;DHT22;8556;52.218;9.884;2022-07-06T15:29:41;22.00;11.50
16879;DHT22;8556;52.218;9.884;2022-07-06T15:32:08;21.90;12.20
16879;DHT22;8556;52.218;9.884;2022-07-06T15:34:36;21.70;12.60
16879;DHT22;8556;52.218;9.884;2022-07-06T15:37:03;21.40;11.60
16879;DHT22;8556;52.218;9.884;2022-07-06T15:39:32;21.80;12.50
16879;DHT22;8556;52.218;9.884;2022-07-06T15:41:59;22.30;12.50
16879;DHT22;8556;52.218;9.884;2022-07-06T15:44:26;22.00;12.00
16879;DHT22;8556;52.218;9.884;2022-07-06T15:46:53;21.70;12.70
16879;DHT22;8556;52.218;9.884;2022-07-06T15:49:20;21.60;13.70
16879;DHT22;8556;52.218;9.884;2022-07-06T15:51:47;21.40;12.60
16879;DHT22;8556;52.218;9.884;2022-07-06T15:54:14;21.40;13.00
16879;DHT22;8556;52.218;9.884;2022-07-06T15:56:44;21.10;13.20